Time;durP1;ratioP1;P1;durP2;ratioP2;P2;SDS_P1;SDS_P2;PMS_P1;PMS_P2;Temp;Humidity;BMP_temperature;BMP_pressure;BME280_temperature;BME280_humidity;BME280_pressure;Samples;Min_cycle;Max_cycle;Signal;HPM_P1;HPM_P2
2022/03/01 00:00:36;;;;;;;18.53;12.03;;;2.30;99.90;;;;;;6400310;22;20017;-89
2022/03/01 00:03:02;;;;;;;18.87;12.67;;;2.30;99.90;;;;;;6401809;22;20010;-91
2022/03/01 00:05:27;;;;;;;18.77;11.97;;;2.30;99.90;;;;;;6375737;22;20010;-91
2022/03/01 00:07:53;;;;;;;21.13;12.10;;;2.40;99.90;;;;;;6402799;22;20028;-89
2022/03/01 00:10:19;;;;;;;22.30;13.77;;;2.30;99.90;;;;;;6402705;22;20029;-90
2022/03/01 00:12:44;;;;;;;19.80;12.20;;;2.30;99.90;;;;;;6376103;22;20049;-89
2022/03/01 00:15:10;;;;;;;17.07;11.77;;;2.30;99.90;;;;;;6376087;22;20038;-90
2022/03/01 00:17:36;;;;;;;18.67;12.40;;;2.30;99.90;;;;;;6375863;22;20014;-89
2022/03/01 00:20:03;;;;;;;19.50;12.17;;;2.20;99.90;;;;;;6376239;22;20018;-90
2022/03/01 00:22:29;;;;;;;18.98;12.10;;;2.20;99.90;;;;;;6402557;22;20071;-90
2022/03/01 00:24:55;;;;;;;19.38;12.27;;;2.20;99.90;;;;;;6376264;22;20380;-93
2022/03/01 00:27:20;;;;;;;16.73;11.67;;;2.20;99.90;;;;;;6404265;22;20025;-92
2022/03/01 00:29:46;;;;;;;18.60;12.23;;;2.10;99.90;;;;;;6402868;22;20088;-89
2022/03/01 00:32:12;;;;;;;20.90;12.23;;;2.10;99.90;;;;;;6404246;22;20373;-91
2022/03/01 00:34:38;;;;;;;19.42;12.43;;;2.10;99.90;;;;;;6375405;22;20013;-89
2022/03/01 00:37:04;;;;;;;20.27;12.27;;;2.10;99.90;;;;;;6375958;22;20029;-91
2022/03/01 00:39:30;;;;;;;18.27;12.02;;;2.00;99.90;;;;;;6402351;22;20085;-90
2022/03/01 00:41:56;;;;;;;20.27;12.25;;;2.00;99.90;;;;;;6401300;22;20060;-88
2022/03/01 00:44:22;;;;;;;20.85;12.70;;;2.00;99.90;;;;;;6399603;22;20017;-90
2022/03/01 00:46:47;;;;;;;18.10;11.93;;;2.00;99.90;;;;;;6372955;22;20046;-89
2022/03/01 00:49:13;;;;;;;18.33;12.48;;;2.00;99.90;;;;;;6402494;22;20129;-90
2022/03/01 00:51:39;;;;;;;21.10;13.13;;;2.00;99.90;;;;;;6375546;22;20093;-89
2022/03/01 00:54:05;;;;;;;19.07;11.93;;;1.90;99.90;;;;;;6402339;22;20028;-90
2022/03/01 00:56:31;;;;;;;17.98;11.93;;;1.90;99.90;;;;;;6403466;22;20236;-87
2022/03/01 00:58:58;;;;;;;16.80;11.68;;;1.90;99.90;;;;;;6402247;22;20093;-87
2022/03/01 01:01:24;;;;;;;20.23;12.40;;;1.90;99.90;;;;;;6375476;22;20022;-91
2022/03/01 01:03:49;;;;;;;21.33;12.50;;;1.90;99.90;;;;;;6402144;22;20327;-90
2022/03/01 01:06:15;;;;;;;17.02;11.25;;;1.80;99.90;;;;;;6403433;22;20047;-90
2022/03/01 01:08:41;;;;;;;18.43;11.70;;;1.80;99.90;;;;;;6375301;22;20013;-86
2022/03/01 01:11:07;;;;;;;17.85;11.70;;;1.80;99.90;;;;;;6403449;22;20089;-90
2022/03/01 01:13:33;;;;;;;18.90;12.47;;;1.80;99.90;;;;;;6403490;22;20324;-89
2022/03/01 01:15:58;;;;;;;20.57;12.17;;;1.70;99.90;;;;;;6401928;22;20025;-89
2022/03/01 01:18:24;;;;;;;18.63;11.93;;;1.70;99.90;;;;;;6403547;22;20010;-90
2022/03/01 01:20:50;;;;;;;20.60;12.07;;;1.70;99.90;;;;;;6403100;22;20019;-89
2022/03/01 01:23:16;;;;;;;18.53;11.87;;;1.70;99.90;;;;;;6403350;22;20510;-89
2022/03/01 01:25:42;;;;;;;18.57;12.20;;;1.60;99.90;;;;;;6398788;22;20343;-87
2022/03/01 01:28:08;;;;;;;19.27;12.05;;;1.60;99.90;;;;;;6401670;22;20024;-89
2022/03/01 01:30:34;;;;;;;20.30;11.90;;;1.60;99.90;;;;;;6403346;22;20013;-89
2022/03/01 01:33:00;;;;;;;20.55;12.88;;;1.60;99.90;;;;;;6375472;22;20010;-89
2022/03/01 01:35:28;;;;;;;19.13;12.60;;;1.60;99.90;;;;;;6375482;22;20029;-88
2022/03/01 01:37:55;;;;;;;20.67;13.95;;;1.60;99.90;;;;;;6374967;22;20006;-88
2022/03/01 01:40:23;;;;;;;20.75;13.52;;;1.60;99.90;;;;;;6401463;22;20021;-89
2022/03/01 01:42:49;;;;;;;19.88;12.75;;;1.60;99.90;;;;;;6402918;22;20088;-89
2022/03/01 01:45:15;;;;;;;20.45;12.68;;;1.60;99.90;;;;;;6401094;22;20060;-88
2022/03/01 01:47:41;;;;;;;19.42;12.10;;;1.60;99.90;;;;;;6401503;22;20060;-91
2022/03/01 01:50:08;;;;;;;19.85;12.30;;;1.60;99.90;;;;;;6403245;22;20017;-91
2022/03/01 01:52:34;;;;;;;19.58;11.80;;;1.60;99.90;;;;;;6374960;22;20020;-88
2022/03/01 01:55:00;;;;;;;21.58;13.27;;;1.60;99.90;;;;;;6374665;22;20010;-90
2022/03/01 01:57:26;;;;;;;18.27;12.07;;;1.50;99.90;;;;;;6375500;22;20064;-89
2022/03/01 01:59:54;;;;;;;22.02;12.68;;;1.50;99.90;;;;;;6374914;22;20244;-91
2022/03/01 02:04:55;;;;;;;20.30;12.23;;;1.40;99.90;;;;;;6371102;22;20033;-87
2022/03/01 02:07:26;;;;;;;19.10;12.20;;;1.40;99.90;;;;;;6317692;22;20019;-88
2022/03/01 02:09:52;;;;;;;20.63;12.95;;;1.40;99.90;;;;;;6317390;22;20014;-88
2022/03/01 02:12:18;;;;;;;19.10;12.50;;;1.30;99.90;;;;;;6317017;22;20025;-85
2022/03/01 02:14:44;;;;;;;18.85;12.57;;;1.30;99.90;;;;;;6316790;22;20092;-86
2022/03/01 02:17:10;;;;;;;20.23;12.17;;;1.30;99.90;;;;;;6343507;22;20014;-87
2022/03/01 02:19:38;;;;;;;21.88;12.65;;;1.20;99.90;;;;;;6370874;22;20093;-86
2022/03/01 02:22:12;;;;;;;;;;;1.20;99.90;;;;;;6344654;22;20092;-87
2022/03/01 02:24:38;;;;;;;20.40;12.55;;;1.20;99.90;;;;;;6343631;22;19910;-88
2022/03/01 02:27:05;;;;;;;20.70;12.90;;;1.20;99.90;;;;;;6317572;22;20012;-88
2022/03/01 02:29:31;;;;;;;20.63;13.05;;;1.10;99.90;;;;;;6317174;22;20022;-88
2022/03/01 02:32:02;;;;;;;19.58;12.10;;;1.10;99.90;;;;;;6317152;22;20018;-87
2022/03/01 02:34:28;;;;;;;19.15;12.57;;;1.20;99.90;;;;;;6316897;22;20312;-86
2022/03/01 02:36:54;;;;;;;18.67;12.18;;;1.20;99.90;;;;;;6342652;22;20043;-88
2022/03/01 02:39:19;;;;;;;18.97;11.73;;;1.20;99.90;;;;;;6342803;22;20014;-86
2022/03/01 02:41:46;;;;;;;17.95;12.13;;;1.20;99.90;;;;;;6316572;22;20018;-85
2022/03/01 02:44:12;;;;;;;18.67;12.07;;;1.20;99.90;;;;;;6316631;22;20049;-86
2022/03/01 02:46:39;;;;;;;18.90;12.80;;;1.30;99.90;;;;;;6316894;22;20025;-86
2022/03/01 02:49:06;;;;;;;19.58;11.95;;;1.30;99.90;;;;;;6343182;22;20071;-89
2022/03/01 02:51:33;;;;;;;20.65;12.52;;;1.20;99.90;;;;;;6317184;22;20017;-87
2022/03/01 02:53:59;;;;;;;;;;;1.20;99.90;;;;;;6317062;22;20079;-86
2022/03/01 02:56:24;;;;;;;19.55;11.93;;;1.20;99.90;;;;;;6342762;22;19914;-87
2022/03/01 02:58:50;;;;;;;21.50;12.82;;;1.20;99.90;;;;;;6316845;22;20441;-87
2022/03/01 03:01:16;;;;;;;18.95;12.30;;;1.20;99.90;;;;;;6343033;22;20011;-86
2022/03/01 03:03:42;;;;;;;20.60;12.13;;;1.20;99.90;;;;;;6342414;22;20063;-87
2022/03/01 03:06:07;;;;;;;21.00;12.50;;;1.20;99.90;;;;;;6342688;22;20097;-86
2022/03/01 03:08:33;;;;;;;19.87;12.93;;;1.20;99.90;;;;;;6316748;22;20423;-87
2022/03/01 03:10:59;;;;;;;19.42;12.95;;;1.20;99.90;;;;;;6342822;22;20309;-86
2022/03/01 03:13:26;;;;;;;18.33;12.57;;;1.20;99.90;;;;;;6342745;22;20389;-87
2022/03/01 03:15:52;;;;;;;18.60;12.20;;;1.20;99.90;;;;;;6316538;22;20029;-86
2022/03/01 03:18:18;;;;;;;20.90;13.63;;;1.20;99.90;;;;;;6342772;22;20470;-87
2022/03/01 03:20:44;;;;;;;21.50;13.17;;;1.20;99.90;;;;;;6316736;22;20019;-86
2022/03/01 03:23:11;;;;;;;20.48;13.13;;;1.20;99.90;;;;;;6316568;22;20436;-86
2022/03/01 03:25:37;;;;;;;18.95;12.63;;;1.20;99.90;;;;;;6316598;22;20433;-86
2022/03/01 03:28:03;;;;;;;18.38;12.15;;;1.20;99.90;;;;;;6316422;22;20018;-88
2022/03/01 03:30:29;;;;;;;20.43;13.00;;;1.20;99.90;;;;;;6316904;22;20093;-87
2022/03/01 03:32:55;;;;;;;20.15;13.27;;;1.10;99.90;;;;;;6316697;22;20244;-87
2022/03/01 03:35:21;;;;;;;20.77;12.45;;;1.10;99.90;;;;;;6316697;22;20014;-87
2022/03/01 03:37:47;;;;;;;19.63;13.30;;;1.10;99.90;;;;;;6316622;22;20108;-87
2022/03/01 03:40:13;;;;;;;19.60;12.50;;;1.10;99.90;;;;;;6370063;22;20022;-87
2022/03/01 03:42:41;;;;;;;21.10;13.20;;;1.00;99.90;;;;;;6342917;22;20025;-87
2022/03/01 03:45:07;;;;;;;20.15;13.45;;;1.10;99.90;;;;;;6342996;22;20049;-88
2022/03/01 03:47:33;;;;;;;21.48;13.43;;;1.10;99.90;;;;;;6316932;22;20021;-88
2022/03/01 03:49:59;;;;;;;20.15;13.02;;;1.10;99.90;;;;;;6316638;22;20003;-87
2022/03/01 03:52:24;;;;;;;20.17;12.67;;;1.20;99.90;;;;;;6342700;22;20581;-87
2022/03/01 03:54:50;;;;;;;22.83;13.55;;;1.20;99.90;;;;;;6316763;22;20017;-87
2022/03/01 03:57:16;;;;;;;20.15;12.52;;;1.20;99.90;;;;;;6316473;22;20010;-87
2022/03/01 03:59:43;;;;;;;21.25;13.65;;;1.30;99.90;;;;;;6342710;22;20014;-88
2022/03/01 04:02:09;;;;;;;21.10;14.10;;;1.30;99.90;;;;;;6316588;22;20075;-87
2022/03/01 04:04:36;;;;;;;20.60;12.93;;;1.30;99.90;;;;;;6337344;22;20015;-88
2022/03/01 04:07:02;;;;;;;;;;;1.30;99.90;;;;;;6339480;22;20451;-86
2022/03/01 04:09:27;;;;;;;20.17;13.27;;;1.40;99.90;;;;;;6338052;22;19950;-88
2022/03/01 04:11:53;;;;;;;20.30;13.15;;;1.40;99.90;;;;;;6340365;22;20046;-86
2022/03/01 04:14:19;;;;;;;20.40;13.77;;;1.40;99.90;;;;;;6338860;22;20440;-87
2022/03/01 04:16:45;;;;;;;22.45;13.93;;;1.40;99.90;;;;;;6340445;22;20025;-86
2022/03/01 04:19:11;;;;;;;21.48;13.85;;;1.40;99.90;;;;;;6339193;22;20018;-87
2022/03/01 04:21:38;;;;;;;22.77;13.83;;;1.40;99.90;;;;;;6340340;22;20018;-86
2022/03/01 04:24:04;;;;;;;19.20;13.05;;;1.40;99.90;;;;;;6340638;22;20064;-88
2022/03/01 04:26:30;;;;;;;20.40;13.35;;;1.40;99.90;;;;;;6338927;22;20018;-88
2022/03/01 04:28:56;;;;;;;20.52;13.80;;;1.40;99.90;;;;;;6340359;22;20014;-88
2022/03/01 04:31:22;;;;;;;21.13;13.55;;;1.40;99.90;;;;;;6339116;22;20053;-89
2022/03/01 04:33:48;;;;;;;23.00;13.83;;;1.40;99.90;;;;;;6338835;22;20015;-87
2022/03/01 04:36:15;;;;;;;20.27;14.02;;;1.40;99.90;;;;;;6340467;22;20054;-86
2022/03/01 04:38:41;;;;;;;22.70;14.27;;;1.30;99.90;;;;;;6340526;22;20026;-88
2022/03/01 04:41:07;;;;;;;22.05;13.77;;;1.30;99.90;;;;;;6361128;22;20339;-86
2022/03/01 04:43:33;;;;;;;20.35;13.10;;;1.30;99.90;;;;;;6318179;22;20095;-86
2022/03/01 04:45:59;;;;;;;21.98;13.80;;;1.30;99.90;;;;;;6372295;22;20014;-89
2022/03/01 04:48:25;;;;;;;22.73;14.20;;;1.30;99.90;;;;;;6372195;22;20037;-88
2022/03/01 04:50:52;;;;;;;20.52;13.70;;;1.30;99.90;;;;;;6343830;22;20025;-88
2022/03/01 04:53:18;;;;;;;21.50;13.88;;;1.30;99.90;;;;;;6343836;22;20455;-88
2022/03/01 04:55:44;;;;;;;22.30;14.20;;;1.30;99.90;;;;;;6318120;22;20029;-87
2022/03/01 04:58:10;;;;;;;22.38;14.15;;;1.30;99.90;;;;;;6371575;22;20021;-89
2022/03/01 05:00:36;;;;;;;22.17;13.97;;;1.30;99.90;;;;;;6343411;22;20343;-88
2022/03/01 05:03:02;;;;;;;20.10;13.18;;;1.30;99.90;;;;;;6343685;22;20083;-88
2022/03/01 05:05:27;;;;;;;20.33;13.57;;;1.30;99.90;;;;;;6339316;22;20019;-90
2022/03/01 05:07:54;;;;;;;24.73;15.23;;;1.30;99.90;;;;;;6344328;22;20061;-90
2022/03/01 05:10:21;;;;;;;22.80;14.95;;;1.30;99.90;;;;;;6344597;22;20097;-91
2022/03/01 05:12:50;;;;;;;;;;;1.30;99.90;;;;;;6372800;22;20347;-90
2022/03/01 05:15:17;;;;;;;22.83;14.57;;;1.30;99.90;;;;;;6344159;22;19914;-89
2022/03/01 05:17:42;;;;;;;;;;;1.30;99.90;;;;;;6372525;22;20093;-90
2022/03/01 05:20:09;;;;;;;21.90;14.38;;;1.30;99.90;;;;;;6371478;22;19961;-90
2022/03/01 05:22:36;;;;;;;23.08;14.35;;;1.30;99.90;;;;;;6371560;22;20018;-89
2022/03/01 05:25:02;;;;;;;21.13;14.15;;;1.30;99.90;;;;;;6370445;22;20010;-88
2022/03/01 05:27:30;;;;;;;20.85;14.25;;;1.30;99.90;;;;;;6315541;22;20015;-90
2022/03/01 05:29:56;;;;;;;20.85;14.95;;;1.30;99.90;;;;;;6341927;22;20014;-90
2022/03/01 05:32:22;;;;;;;22.60;14.52;;;1.30;99.90;;;;;;6370025;22;20095;-89
2022/03/01 05:34:48;;;;;;;21.92;14.38;;;1.30;99.90;;;;;;6369989;22;20096;-89
2022/03/01 05:37:13;;;;;;;21.70;13.38;;;1.40;99.90;;;;;;6342515;22;20025;-88
2022/03/01 05:39:39;;;;;;;25.75;14.15;;;1.40;99.90;;;;;;6342803;22;20087;-89
2022/03/01 05:42:06;;;;;;;21.38;14.40;;;1.30;99.90;;;;;;6370247;22;20021;-89
2022/03/01 05:44:32;;;;;;;24.13;14.88;;;1.30;99.90;;;;;;6371538;22;20037;-86
2022/03/01 05:46:59;;;;;;;23.45;15.13;;;1.30;99.90;;;;;;6317908;22;20014;-90
2022/03/01 05:49:24;;;;;;;21.35;14.52;;;1.40;99.90;;;;;;6371637;22;20010;-91
2022/03/01 05:51:50;;;;;;;22.88;14.55;;;1.30;99.90;;;;;;6371625;22;20351;-91
2022/03/01 05:54:16;;;;;;;24.05;14.77;;;1.40;99.90;;;;;;6343452;22;20089;-89
2022/03/01 05:56:41;;;;;;;21.77;14.45;;;1.40;99.90;;;;;;6344017;22;20010;-89
2022/03/01 05:59:07;;;;;;;22.52;14.95;;;1.30;99.90;;;;;;6317894;22;20028;-90
2022/03/01 06:01:33;;;;;;;22.75;14.52;;;1.30;99.90;;;;;;6317842;22;20014;-90
2022/03/01 06:03:58;;;;;;;22.90;15.27;;;1.30;99.90;;;;;;6317825;22;20018;-89
2022/03/01 06:06:24;;;;;;;24.70;15.80;;;1.30;99.90;;;;;;6317967;22;20018;-88
2022/03/01 06:08:50;;;;;;;24.67;14.43;;;1.30;99.90;;;;;;6317917;22;20014;-90
2022/03/01 06:11:15;;;;;;;25.33;15.02;;;1.40;99.90;;;;;;6317824;22;20015;-90
2022/03/01 06:13:43;;;;;;;25.83;15.55;;;1.40;99.90;;;;;;6317669;22;20463;-90
2022/03/01 06:16:09;;;;;;;22.00;13.68;;;1.40;99.90;;;;;;6318480;22;20010;-96
2022/03/01 06:18:35;;;;;;;22.75;14.63;;;1.40;99.90;;;;;;6320978;22;20070;-96
2022/03/01 06:21:04;;;;;;;20.38;13.90;;;1.40;99.90;;;;;;6381573;22;20021;-95
2022/03/01 06:23:31;;;;;;;22.30;15.10;;;1.40;99.90;;;;;;6320875;22;20079;-96
2022/03/01 06:25:57;;;;;;;21.95;14.75;;;1.50;99.90;;;;;;6371674;22;20094;-95
2022/03/01 06:28:23;;;;;;;24.40;14.82;;;1.40;99.90;;;;;;6319832;22;20003;-96
2022/03/01 06:30:49;;;;;;;22.33;13.63;;;1.50;99.90;;;;;;6344541;22;20044;-93
2022/03/01 07:01:44;;;;;;;25.85;15.82;;;1.70;99.90;;;;;;6422406;22;20032;-94
2022/03/01 07:04:14;;;;;;;25.13;15.38;;;1.80;99.90;;;;;;6398655;22;20040;-96
2022/03/01 07:24:47;;;;;;;23.63;15.25;;;2.00;99.90;;;;;;6399881;22;20029;-95
2022/03/01 07:27:13;;;;;;;24.73;15.95;;;2.10;99.90;;;;;;6348428;22;20022;-94
2022/03/01 07:29:39;;;;;;;23.30;15.25;;;2.10;99.90;;;;;;6351171;22;20084;-92
2022/03/01 07:32:24;;;;;;;22.65;15.70;;;2.10;99.90;;;;;;6322710;22;20466;-90
2022/03/01 07:34:49;;;;;;;24.33;15.63;;;2.20;99.90;;;;;;6347872;22;20021;-88
2022/03/01 07:37:18;;;;;;;22.98;15.73;;;2.20;99.90;;;;;;6348339;22;20018;-93
2022/03/01 07:39:44;;;;;;;22.52;14.63;;;2.30;99.90;;;;;;6348166;22;20010;-93
2022/03/01 07:42:15;;;;;;;25.48;16.30;;;2.40;99.90;;;;;;6349051;22;20032;-90
2022/03/01 07:44:41;;;;;;;26.95;16.52;;;2.40;99.90;;;;;;6349070;22;20013;-94
2022/03/01 07:51:12;;;;;;;24.45;16.25;;;2.50;99.90;;;;;;6405386;22;20041;-96
2022/03/01 07:53:41;;;;;;;26.50;16.08;;;2.60;99.90;;;;;;6349538;22;20544;-94
2022/03/01 07:56:07;;;;;;;23.73;15.93;;;2.60;99.90;;;;;;6350334;22;20010;-91
2022/03/01 07:58:33;;;;;;;24.50;16.15;;;2.60;99.90;;;;;;6350066;22;20032;-93
2022/03/01 08:01:21;;;;;;;23.55;16.13;;;2.70;99.90;;;;;;6348341;22;20268;-93
2022/03/01 08:03:48;;;;;;;24.45;15.85;;;2.70;99.90;;;;;;6350745;22;20014;-95
2022/03/01 08:06:20;;;;;;;23.27;15.60;;;2.80;99.90;;;;;;6350748;22;20014;-94
2022/03/01 08:12:23;;;;;;;24.20;15.38;;;2.90;99.90;;;;;;6306486;22;20066;-95
2022/03/01 08:15:47;;;;;;;23.88;16.45;;;2.90;99.90;;;;;;6349896;22;20013;-93
2022/03/01 08:18:16;;;;;;;23.23;15.80;;;2.90;99.90;;;;;;6347879;22;20021;-93
2022/03/01 08:21:11;;;;;;;;;;;;;;;;;;;;;
2022/03/01 09:03:23;;;;;;;21.63;15.05;;;3.70;99.90;;;;;;6401938;22;20018;-90
2022/03/01 09:05:48;;;;;;;23.90;15.27;;;3.80;99.90;;;;;;6375555;22;20021;-90
2022/03/01 09:08:15;;;;;;;21.25;14.50;;;3.90;99.90;;;;;;6375428;22;20010;-91
2022/03/01 09:10:41;;;;;;;22.48;14.80;;;3.90;99.90;;;;;;6376285;22;20075;-91
2022/03/01 09:13:07;;;;;;;29.58;14.77;;;4.00;99.90;;;;;;6402216;22;20006;-91
2022/03/01 09:15:33;;;;;;;23.88;15.48;;;4.10;99.90;;;;;;6375889;22;20519;-90
2022/03/01 09:18:05;;;;;;;21.45;14.25;;;4.20;99.90;;;;;;6375739;22;20010;-93
2022/03/01 09:20:32;;;;;;;25.00;15.65;;;4.30;99.90;;;;;;6375679;22;20018;-92
2022/03/01 09:22:58;;;;;;;;;;;4.30;99.90;;;;;;6376440;22;20017;-93
2022/03/01 09:25:25;;;;;;;23.00;15.55;;;4.50;99.90;;;;;;6375683;22;19920;-94
2022/03/01 09:27:51;;;;;;;24.50;15.02;;;4.60;99.90;;;;;;6375622;22;20024;-92
2022/03/01 09:30:18;;;;;;;21.30;14.65;;;4.70;99.90;;;;;;6375654;22;20043;-93
2022/03/01 09:32:44;;;;;;;;;;;4.70;99.90;;;;;;6376478;22;20450;-91
2022/03/01 09:35:10;;;;;;;20.58;14.15;;;4.80;99.90;;;;;;6375652;22;19982;-90
2022/03/01 09:37:36;;;;;;;21.50;14.80;;;4.90;99.90;;;;;;6375689;22;20010;-91
2022/03/01 09:40:05;;;;;;;19.93;14.70;;;4.90;99.90;;;;;;6375539;22;20025;-92
2022/03/01 09:43:05;;;;;;;21.80;14.88;;;4.90;99.90;;;;;;6379305;22;20331;-91
2022/03/01 09:45:33;;;;;;;22.42;14.20;;;5.00;99.90;;;;;;6376850;22;20010;-92
2022/03/01 09:48:09;;;;;;;22.83;14.63;;;5.00;99.90;;;;;;6375367;22;20018;-90
2022/03/01 09:50:46;;;;;;;19.83;13.60;;;5.00;99.90;;;;;;6406116;22;20010;-91
2022/03/01 09:53:25;;;;;;;22.05;14.48;;;5.00;99.90;;;;;;6379854;22;20013;-90
2022/03/01 09:55:54;;;;;;;18.25;13.50;;;5.00;99.90;;;;;;6379908;22;20049;-90
2022/03/01 09:58:33;;;;;;;21.90;14.20;;;5.00;99.90;;;;;;6407247;22;20446;-90
2022/03/01 10:58:30;;;;;;;19.60;12.95;;;7.40;99.90;;;;;;6408509;22;20048;-89
2022/03/01 11:01:06;;;;;;;17.77;12.23;;;7.40;99.90;;;;;;6404104;22;20021;-89
2022/03/01 11:03:37;;;;;;;21.88;12.90;;;7.40;99.50;;;;;;6379834;22;20010;-88
2022/03/01 11:06:05;;;;;;;20.52;12.85;;;7.40;98.00;;;;;;6403973;22;20017;-89
2022/03/01 11:08:35;;;;;;;20.27;12.48;;;7.40;98.80;;;;;;6377963;22;20523;-90
2022/03/01 11:11:07;;;;;;;36.83;23.88;;;7.30;99.10;;;;;;6405954;22;20010;-89
2022/03/01 11:13:39;;;;;;;113.75;56.28;;;7.30;99.60;;;;;;6378522;22;20465;-90
2022/03/01 11:16:47;;;;;;;39.55;21.30;;;7.30;99.90;;;;;;6405152;22;20032;-89
2022/03/01 11:19:32;;;;;;;24.67;16.10;;;7.20;99.40;;;;;;6378011;22;20018;-89
2022/03/01 11:22:02;;;;;;;26.83;21.50;;;7.20;97.70;;;;;;6405939;22;20121;-89
2022/03/01 11:24:29;;;;;;;;;;;7.20;99.10;;;;;;6378595;22;20010;-89
2022/03/01 11:27:05;;;;;;;21.85;14.23;;;7.20;96.80;;;;;;6377752;22;19913;-89
2022/03/01 11:29:40;;;;;;;22.17;13.63;;;7.10;99.60;;;;;;6377291;22;20049;-89
2022/03/01 11:32:12;;;;;;;20.48;13.00;;;7.10;99.20;;;;;;6377318;22;20067;-89
2022/03/01 11:34:39;;;;;;;24.27;14.13;;;7.10;98.10;;;;;;6377466;22;20353;-89
2022/03/01 11:37:13;;;;;;;20.27;14.77;;;7.10;98.30;;;;;;6405019;22;20021;-89
2022/03/01 11:39:39;;;;;;;19.27;12.75;;;7.10;98.90;;;;;;6379307;22;20060;-89
2022/03/01 11:42:09;;;;;;;21.27;13.80;;;7.20;98.10;;;;;;6405245;22;20024;-90
2022/03/01 11:44:42;;;;;;;18.98;12.88;;;7.20;98.40;;;;;;6378117;22;20049;-90
2022/03/01 11:47:21;;;;;;;18.27;13.35;;;7.10;98.00;;;;;;6378376;22;20443;-89
2022/03/01 11:49:47;;;;;;;20.70;13.65;;;7.20;98.30;;;;;;6404096;22;20022;-90
2022/03/01 11:52:22;;;;;;;20.30;14.37;;;7.20;98.30;;;;;;6378646;22;20097;-89
2022/03/01 11:54:50;;;;;;;21.63;13.80;;;7.20;98.20;;;;;;6377685;22;20018;-89
2022/03/01 11:57:18;;;;;;;23.15;14.88;;;7.20;98.50;;;;;;6377700;22;20045;-89
2022/03/01 11:59:44;;;;;;;21.23;14.20;;;7.30;98.70;;;;;;6378641;22;20022;-89
2022/03/01 12:02:13;;;;;;;21.07;14.67;;;7.30;98.90;;;;;;6377438;22;20014;-89
2022/03/01 12:04:50;;;;;;;25.63;14.85;;;7.30;98.60;;;;;;6377706;22;20395;-89
2022/03/01 12:07:24;;;;;;;24.25;15.43;;;7.30;98.10;;;;;;6403061;22;20014;-89
2022/03/01 12:10:05;;;;;;;22.45;14.85;;;7.20;98.20;;;;;;6376768;22;20087;-89
2022/03/01 12:13:03;;;;;;;20.02;14.68;;;7.20;98.90;;;;;;6377191;22;20014;-89
2022/03/01 12:15:35;;;;;;;23.85;14.43;;;7.20;99.40;;;;;;6375184;22;20020;-89
2022/03/01 12:18:17;;;;;;;22.08;14.88;;;7.20;99.00;;;;;;6378281;22;20020;-89
2022/03/01 12:20:46;;;;;;;19.88;14.75;;;7.20;98.90;;;;;;6377708;22;20443;-89
2022/03/01 12:23:26;;;;;;;22.90;14.85;;;7.10;98.90;;;;;;6403918;22;20041;-89
2022/03/01 12:25:53;;;;;;;22.20;14.80;;;7.10;98.90;;;;;;6380891;22;20021;-89
2022/03/01 12:28:23;;;;;;;;;;;7.10;99.10;;;;;;6383227;22;20020;-90
2022/03/01 12:30:52;;;;;;;22.63;14.20;;;7.10;98.90;;;;;;6407432;22;19913;-89
2022/03/01 12:33:26;;;;;;;21.50;13.88;;;7.00;99.80;;;;;;6406459;22;20013;-89
2022/03/01 12:36:08;;;;;;;27.58;16.02;;;7.10;99.90;;;;;;6406661;22;20434;-89
2022/03/01 12:38:40;;;;;;;23.40;15.25;;;7.00;99.90;;;;;;6348310;22;20476;-90
2022/03/01 12:41:10;;;;;;;26.92;16.45;;;7.00;99.90;;;;;;6347671;22;20459;-90
2022/03/01 12:43:36;;;;;;;22.58;15.82;;;7.00;99.90;;;;;;6321621;22;20014;-90
2022/03/01 12:46:17;;;;;;;22.85;15.43;;;7.00;99.90;;;;;;6338502;22;20017;-90
2022/03/01 12:48:52;;;;;;;22.60;15.13;;;7.00;99.90;;;;;;6348554;22;20042;-90
2022/03/01 12:51:22;;;;;;;23.55;15.70;;;7.00;99.90;;;;;;6348345;22;20454;-90
2022/03/01 12:53:59;;;;;;;22.08;14.75;;;6.90;99.90;;;;;;6321851;22;20015;-90
2022/03/01 12:56:31;;;;;;;22.27;14.88;;;7.00;99.90;;;;;;6344066;22;20025;-90
2022/03/01 12:59:08;;;;;;;23.88;15.57;;;7.00;99.90;;;;;;6325267;22;20015;-89
2022/03/01 13:14:32;;;;;;;22.83;15.15;;;7.30;99.90;;;;;;6406326;22;20028;-91
2022/03/01 13:17:01;;;;;;;22.13;14.68;;;7.40;99.90;;;;;;6353321;22;20021;-90
2022/03/01 13:19:35;;;;;;;22.30;14.63;;;7.40;99.70;;;;;;6352803;22;20006;-90
2022/03/01 13:22:11;;;;;;;28.65;15.80;;;7.40;99.40;;;;;;6380860;22;20014;-90
2022/03/01 13:24:47;;;;;;;27.67;17.83;;;7.40;99.40;;;;;;6379241;22;20324;-90
2022/03/01 13:27:17;;;;;;;22.08;15.75;;;7.50;99.70;;;;;;6380221;22;20024;-90
2022/03/01 13:29:50;;;;;;;23.42;15.43;;;7.50;99.90;;;;;;6407560;22;20010;-90
2022/03/01 13:32:23;;;;;;;24.27;16.00;;;7.50;99.90;;;;;;6379553;22;20014;-89
2022/03/01 13:35:08;;;;;;;24.05;16.13;;;7.60;99.90;;;;;;6380944;22;20018;-90
2022/03/01 13:37:40;;;;;;;22.27;15.18;;;7.60;99.90;;;;;;6407601;22;20044;-90
2022/03/01 13:40:22;;;;;;;23.48;15.48;;;7.60;99.90;;;;;;6412177;22;20028;-89
2022/03/01 13:42:53;;;;;;;21.45;15.45;;;7.60;99.90;;;;;;6411329;22;20473;-91
2022/03/01 13:45:35;;;;;;;26.13;16.25;;;7.60;99.90;;;;;;6387488;22;20339;-91
2022/03/01 13:48:18;;;;;;;22.48;16.10;;;7.60;99.50;;;;;;6412681;22;20461;-90
2022/03/01 13:54:11;;;;;;;24.35;16.05;;;7.60;99.80;;;;;;6400241;22;20018;-90
2022/03/01 14:04:25;;;;;;;23.00;16.33;;;7.50;99.90;;;;;;6402844;22;20466;-91
2022/03/01 14:06:54;;;;;;;25.83;16.40;;;7.60;99.90;;;;;;6375792;22;20060;-94
2022/03/01 14:09:20;;;;;;;23.45;16.00;;;7.60;99.90;;;;;;6375546;22;20066;-90
2022/03/01 14:11:57;;;;;;;25.55;16.90;;;7.60;99.90;;;;;;6375825;22;20037;-93
2022/03/01 14:14:26;;;;;;;24.63;15.40;;;7.60;99.90;;;;;;6375207;22;20014;-91
2022/03/01 14:16:54;;;;;;;21.67;15.02;;;7.60;99.90;;;;;;6375588;22;20018;-91
2022/03/01 14:19:20;;;;;;;24.10;16.65;;;7.70;99.90;;;;;;6375498;22;20698;-92
2022/03/01 14:21:49;;;;;;;22.40;16.92;;;7.70;99.90;;;;;;6375133;22;20024;-91
2022/03/01 14:24:17;;;;;;;22.48;16.60;;;7.70;99.90;;;;;;6375066;22;20014;-90
2022/03/01 14:26:43;;;;;;;;;;;7.80;99.90;;;;;;6375715;22;20026;-91
2022/03/01 14:29:19;;;;;;;21.88;15.32;;;7.70;99.90;;;;;;6376124;22;19918;-91
2022/03/01 14:32:02;;;;;;;23.60;16.55;;;7.70;99.90;;;;;;6375031;22;20014;-91
2022/03/01 14:34:28;;;;;;;24.63;16.27;;;7.70;99.90;;;;;;6375306;22;20025;-92
2022/03/01 14:37:03;;;;;;;24.93;17.03;;;7.70;99.90;;;;;;6401511;22;20010;-92
2022/03/01 14:39:29;;;;;;;26.83;17.50;;;7.70;99.90;;;;;;6374913;22;20086;-91
2022/03/01 14:41:55;;;;;;;28.27;18.10;;;7.70;99.90;;;;;;6374840;22;20049;-92
2022/03/01 14:44:23;;;;;;;22.23;16.90;;;7.60;99.90;;;;;;6374971;22;20017;-92
2022/03/01 14:46:49;;;;;;;26.90;17.20;;;7.60;99.90;;;;;;6375006;22;20096;-92
2022/03/01 15:38:19;;;;;;;29.42;20.25;;;7.10;99.90;;;;;;6393204;22;20110;-90
2022/03/01 15:40:45;;;;;;;28.13;19.30;;;7.10;99.90;;;;;;6374375;22;20021;-90
2022/03/01 15:43:11;;;;;;;29.23;20.00;;;7.10;99.90;;;;;;6374658;22;20392;-90
2022/03/01 15:45:37;;;;;;;28.57;20.13;;;7.00;99.90;;;;;;6374433;22;20074;-92
2022/03/01 15:48:03;;;;;;;27.43;19.40;;;7.00;99.90;;;;;;6374730;22;20014;-90
2022/03/01 15:50:29;;;;;;;28.83;20.90;;;7.00;99.90;;;;;;6374757;22;20435;-89
2022/03/01 15:53:09;;;;;;;28.85;20.38;;;7.00;99.90;;;;;;6374801;22;20247;-90
2022/03/01 15:55:35;;;;;;;28.08;20.70;;;7.00;99.90;;;;;;6373954;22;20014;-90
2022/03/01 15:58:01;;;;;;;30.60;20.77;;;7.00;99.90;;;;;;6374614;22;20100;-90
2022/03/01 16:00:26;;;;;;;30.60;21.50;;;7.00;99.90;;;;;;6374519;22;20041;-92
2022/03/01 16:02:53;;;;;;;30.63;22.00;;;7.00;99.90;;;;;;6374922;22;20014;-91
2022/03/01 16:05:19;;;;;;;27.83;20.25;;;7.00;99.90;;;;;;6375576;22;20006;-92
2022/03/01 16:07:48;;;;;;;26.80;19.48;;;7.00;99.90;;;;;;6376676;22;20018;-92
2022/03/01 16:10:13;;;;;;;25.17;18.80;;;7.00;99.90;;;;;;6377047;22;20094;-91
2022/03/01 16:12:40;;;;;;;28.13;20.10;;;7.00;99.90;;;;;;6376823;22;20014;-91
2022/03/01 16:15:07;;;;;;;29.05;20.45;;;7.00;99.90;;;;;;6376757;22;20013;-91
2022/03/01 16:17:33;;;;;;;30.77;20.98;;;6.90;99.90;;;;;;6377412;22;20067;-92
2022/03/01 16:20:07;;;;;;;30.17;21.77;;;6.90;99.90;;;;;;6385901;22;20014;-91
2022/03/01 16:46:55;;;;;;;30.27;22.75;;;6.70;99.90;;;;;;6407805;22;20022;-91
2022/03/01 16:49:21;;;;;;;30.98;22.30;;;6.70;99.90;;;;;;6381261;22;20041;-91
2022/03/01 16:51:52;;;;;;;30.27;22.10;;;6.70;99.90;;;;;;6354130;22;20010;-91
2022/03/01 16:54:18;;;;;;;31.02;22.75;;;6.60;99.90;;;;;;6380672;22;20299;-91
2022/03/01 16:56:44;;;;;;;34.07;22.83;;;6.60;99.90;;;;;;6380519;22;20021;-89
2022/03/01 16:59:12;;;;;;;31.67;22.80;;;6.60;99.90;;;;;;6383377;22;20426;-88